createdAt,value
2023-01-04T00:01:31.123Z,12.50
2023-01-04T00:03:58.046Z,12.50
2023-01-04T00:06:24.955Z,12.50
2023-01-04T00:08:51.721Z,12.50
2023-01-04T00:11:19.396Z,12.50
2023-01-04T00:13:46.617Z,12.60
2023-01-04T00:16:15.128Z,12.60
2023-01-04T00:18:42.260Z,12.60
2023-01-04T00:21:10.336Z,12.60
2023-01-04T00:23:38.061Z,12.60
2023-01-04T00:26:11.695Z,12.60
2023-01-04T00:28:38.662Z,12.60
2023-01-04T00:31:05.813Z,12.50
2023-01-04T00:33:32.869Z,12.60
2023-01-04T00:36:03.974Z,12.60
2023-01-04T00:38:30.798Z,12.60
2023-01-04T00:40:57.566Z,12.60
2023-01-04T00:43:24.533Z,12.60
2023-01-04T00:45:51.356Z,12.60
2023-01-04T00:48:18.218Z,12.70
2023-01-04T00:50:45.480Z,12.60
2023-01-04T00:53:12.555Z,12.70
2023-01-04T00:55:39.355Z,12.60
2023-01-04T00:58:06.361Z,12.60
2023-01-04T01:00:33.405Z,12.60
2023-01-04T01:03:00.575Z,12.60
2023-01-04T01:05:27.472Z,12.60
2023-01-04T01:07:54.260Z,12.60
2023-01-04T01:10:21.025Z,12.60
2023-01-04T01:12:47.863Z,12.60
2023-01-04T01:15:14.713Z,12.50
2023-01-04T01:17:41.530Z,12.60
2023-01-04T01:20:08.636Z,12.60
2023-01-04T01:22:35.647Z,12.60
2023-01-04T01:25:02.460Z,12.60
2023-01-04T01:27:29.278Z,12.60
2023-01-04T01:29:56.120Z,12.60
2023-01-04T01:32:23.013Z,12.60
2023-01-04T01:34:49.867Z,12.60
2023-01-04T01:37:16.668Z,12.60
2023-01-04T01:39:43.808Z,12.60
2023-01-04T01:42:18.638Z,12.60
2023-01-04T01:44:45.488Z,12.60
2023-01-04T01:47:12.330Z,12.60
2023-01-04T01:49:39.127Z,12.60
2023-01-04T01:52:07.148Z,12.60
2023-01-04T01:54:39.168Z,12.60
2023-01-04T01:57:06.360Z,12.60
2023-01-04T01:59:33.829Z,12.60
2023-01-04T02:02:00.812Z,12.70
2023-01-04T02:04:27.780Z,12.60
2023-01-04T02:06:55.211Z,12.70
2023-01-04T02:09:22.015Z,12.70
2023-01-04T02:11:48.821Z,12.70
2023-01-04T02:14:27.872Z,12.70
2023-01-04T02:16:56.407Z,12.70
2023-01-04T02:19:29.273Z,12.70
2023-01-04T02:22:05.145Z,12.70
2023-01-04T02:24:51.481Z,12.70
2023-01-04T02:27:21.259Z,12.70
2023-01-04T02:29:48.076Z,12.70
2023-01-04T02:32:18.350Z,12.70
2023-01-04T02:35:20.628Z,12.70
2023-01-04T02:37:51.923Z,12.70
2023-01-04T02:40:23.678Z,12.70
2023-01-04T02:43:16.125Z,12.70
2023-01-04T02:45:45.088Z,12.70
2023-01-04T02:48:30.741Z,12.70
2023-01-04T02:50:58.150Z,12.70
2023-01-04T02:53:28.963Z,12.70
2023-01-04T02:55:55.810Z,12.70
2023-01-04T02:58:31.120Z,12.80
2023-01-04T03:01:38.308Z,12.70
2023-01-04T03:04:35.931Z,12.70
2023-01-04T03:07:05.709Z,12.70
2023-01-04T03:09:33.891Z,12.70
2023-01-04T03:12:21.339Z,12.70
2023-01-04T03:14:51.683Z,12.70
2023-01-04T03:17:19.827Z,12.70
2023-01-04T03:19:54.820Z,12.70
2023-01-04T03:22:54.647Z,12.70
2023-01-04T03:25:42.672Z,12.60
2023-01-04T03:28:28.745Z,12.60
2023-01-04T03:31:17.015Z,12.70
2023-01-04T03:34:02.689Z,12.70
2023-01-04T03:36:29.628Z,12.70
2023-01-04T03:39:17.083Z,12.70
2023-01-04T03:42:10.232Z,12.70
2023-01-04T03:45:02.932Z,12.70
2023-01-04T03:47:53.653Z,12.70
2023-01-04T03:50:28.505Z,12.70
2023-01-04T03:52:55.500Z,12.70
2023-01-04T03:55:22.282Z,12.60
2023-01-04T03:57:51.291Z,12.70
2023-01-04T04:00:18.347Z,12.70
2023-01-04T04:02:45.824Z,12.70
2023-01-04T04:05:34.416Z,12.70
2023-01-04T04:08:20.079Z,12.70
2023-01-04T04:10:46.877Z,12.60
2023-01-04T04:13:13.654Z,12.60
2023-01-04T04:15:40.491Z,12.60
2023-01-04T04:18:07.299Z,12.70
2023-01-04T04:20:34.135Z,12.60
2023-01-04T04:23:00.881Z,12.70
2023-01-04T04:25:27.845Z,12.70
2023-01-04T04:27:54.722Z,12.70
2023-01-04T04:30:21.620Z,12.70
2023-01-04T04:32:48.419Z,12.70
2023-01-04T04:35:15.319Z,12.70
2023-01-04T04:37:42.146Z,12.70
2023-01-04T04:40:29.185Z,12.70
2023-01-04T04:42:56.153Z,12.70
2023-01-04T04:45:22.942Z,12.70
2023-01-04T04:47:49.774Z,12.70
2023-01-04T04:50:16.641Z,12.70
2023-01-04T04:52:43.455Z,12.80
2023-01-04T04:55:10.211Z,12.80
2023-01-04T04:57:37.057Z,12.80
2023-01-04T05:00:04.020Z,12.80
2023-01-04T05:02:30.926Z,12.90
2023-01-04T05:04:57.846Z,12.80
2023-01-04T05:07:24.659Z,12.80
2023-01-04T05:09:51.487Z,12.90
2023-01-04T05:12:36.843Z,12.90
2023-01-04T05:15:03.833Z,12.90
2023-01-04T05:17:30.608Z,12.90
2023-01-04T05:19:57.824Z,13.00
2023-01-04T05:22:24.615Z,13.00
2023-01-04T05:24:51.402Z,13.00
2023-01-04T05:27:18.220Z,13.00
2023-01-04T05:30:03.849Z,13.10
2023-01-04T05:32:30.845Z,13.10
2023-01-04T05:34:57.676Z,13.00
2023-01-04T05:37:25.808Z,13.10
2023-01-04T05:39:52.604Z,13.10
2023-01-04T05:42:25.399Z,13.10
2023-01-04T05:44:52.549Z,13.10
2023-01-04T05:47:19.367Z,13.10
2023-01-04T05:49:46.135Z,13.00
2023-01-04T05:52:12.900Z,13.00
2023-01-04T05:54:39.838Z,12.90
2023-01-04T05:57:06.894Z,12.90
2023-01-04T05:59:40.886Z,12.90
2023-01-04T06:02:10.516Z,12.90
2023-01-04T06:04:37.462Z,12.80
2023-01-04T06:07:04.260Z,12.80
2023-01-04T06:09:31.043Z,12.80
2023-01-04T06:11:57.842Z,12.80
2023-01-04T06:14:24.629Z,12.80
2023-01-04T06:16:51.490Z,12.70
2023-01-04T06:19:18.286Z,12.80
2023-01-04T06:21:45.103Z,12.70
2023-01-04T06:24:11.979Z,12.80
2023-01-04T06:26:38.795Z,12.80
2023-01-04T06:29:05.630Z,12.80
2023-01-04T06:31:33.754Z,12.80
2023-01-04T06:34:00.569Z,12.80
2023-01-04T06:36:27.368Z,12.80
2023-01-04T06:38:54.383Z,12.90
2023-01-04T06:41:21.157Z,12.90
2023-01-04T06:43:47.947Z,12.90
2023-01-04T06:46:14.824Z,12.90
2023-01-04T06:48:41.676Z,12.90
2023-01-04T06:51:08.595Z,12.90
2023-01-04T06:53:35.408Z,12.90
2023-01-04T06:56:02.192Z,12.90
2023-01-04T06:58:29.034Z,12.90
2023-01-04T07:00:56.132Z,12.90
2023-01-04T07:03:23.187Z,13.00
2023-01-04T07:05:50.148Z,13.00
2023-01-04T07:08:17.124Z,13.00
2023-01-04T07:10:43.967Z,13.00
2023-01-04T07:13:10.810Z,12.90
2023-01-04T07:15:40.636Z,12.90
2023-01-04T07:18:11.536Z,12.90
2023-01-04T07:20:38.361Z,12.90
2023-01-04T07:23:05.620Z,12.90
2023-01-04T07:25:32.473Z,12.90
2023-01-04T07:27:59.272Z,12.90
2023-01-04T07:30:26.257Z,12.90
2023-01-04T07:32:54.930Z,12.90
2023-01-04T07:35:21.864Z,12.90
2023-01-04T07:37:53.701Z,12.90
2023-01-04T07:40:24.590Z,12.90
2023-01-04T07:42:56.936Z,12.90
2023-01-04T07:45:23.922Z,12.80
2023-01-04T07:47:50.785Z,12.90
2023-01-04T07:50:17.681Z,12.80
2023-01-04T07:52:44.487Z,12.80
2023-01-04T07:55:11.316Z,12.80
2023-01-04T07:57:38.336Z,12.80
2023-01-04T08:00:05.390Z,12.90
2023-01-04T08:02:39.040Z,12.90
2023-01-04T08:05:06.576Z,12.90
2023-01-04T08:07:33.441Z,13.00
2023-01-04T08:10:00.284Z,12.90
2023-01-04T08:12:27.222Z,12.90
2023-01-04T08:14:54.042Z,12.90
2023-01-04T08:17:20.955Z,12.90
2023-01-04T08:19:47.794Z,12.90
2023-01-04T08:22:14.741Z,12.90
2023-01-04T08:24:42.077Z,12.90
2023-01-04T08:27:09.111Z,12.90
2023-01-04T08:29:35.972Z,13.00
2023-01-04T08:32:03.264Z,12.90
2023-01-04T08:34:30.536Z,13.00
2023-01-04T08:36:57.351Z,13.00
2023-01-04T08:39:24.272Z,12.90
2023-01-04T08:42:04.290Z,12.90
2023-01-04T08:44:35.241Z,12.90
2023-01-04T08:47:02.258Z,12.90
2023-01-04T08:49:29.345Z,12.90
2023-01-04T08:51:56.228Z,12.90
2023-01-04T08:54:23.135Z,13.00
2023-01-04T08:56:49.995Z,13.00
2023-01-04T08:59:16.825Z,13.00
2023-01-04T09:01:44.186Z,13.00
2023-01-04T09:04:11.231Z,13.00
2023-01-04T09:06:39.337Z,13.00
2023-01-04T09:09:06.215Z,13.10
2023-01-04T09:11:33.063Z,13.10
2023-01-04T09:14:07.366Z,13.10
2023-01-04T09:16:35.220Z,13.20
2023-01-04T09:19:02.199Z,13.20
2023-01-04T09:21:29.142Z,13.30
2023-01-04T09:23:56.625Z,13.30
2023-01-04T09:26:23.526Z,13.30
2023-01-04T09:28:50.678Z,13.30
2023-01-04T09:31:18.551Z,13.40
2023-01-04T09:34:13.628Z,13.40
2023-01-04T09:36:32.234Z,13.40
2023-01-04T09:38:59.089Z,13.40
2023-01-04T09:41:26.856Z,13.40
2023-01-04T09:43:53.653Z,13.50
2023-01-04T09:46:28.884Z,13.50
2023-01-04T09:49:02.092Z,13.50
2023-01-04T09:51:30.503Z,13.40
2023-01-04T09:54:05.273Z,13.50
2023-01-04T09:56:33.158Z,13.50
2023-01-04T09:59:00.629Z,13.60
2023-01-04T10:01:40.327Z,13.60
2023-01-04T10:04:10.986Z,13.60
2023-01-04T10:06:37.887Z,13.60
2023-01-04T10:09:06.769Z,13.70
2023-01-04T10:11:45.879Z,13.70
2023-01-04T10:14:15.583Z,13.80
2023-01-04T10:22:45.580Z,13.90
2023-01-04T10:25:15.219Z,13.80
2023-01-04T10:27:57.907Z,13.80
2023-01-04T10:30:28.003Z,13.90
2023-01-04T10:33:15.204Z,13.90
2023-01-04T10:35:43.624Z,13.90
2023-01-04T10:38:12.330Z,14.00
2023-01-04T10:40:39.505Z,14.00
2023-01-04T10:43:26.639Z,14.00
2023-01-04T10:46:06.128Z,14.00
2023-01-04T10:48:38.798Z,14.00
2023-01-04T10:51:10.203Z,14.00
2023-01-04T10:53:37.776Z,14.10
2023-01-04T10:56:25.482Z,14.10
2023-01-04T10:59:07.448Z,14.10
2023-01-04T11:01:53.380Z,14.10
2023-01-04T11:04:25.064Z,14.10
2023-01-04T11:07:02.930Z,14.20
2023-01-04T11:09:31.723Z,14.20
2023-01-04T11:11:58.631Z,14.20
2023-01-04T11:14:25.731Z,14.20
2023-01-04T11:16:54.397Z,14.20
2023-01-04T11:19:21.275Z,14.20
2023-01-04T11:21:52.478Z,14.20
2023-01-04T11:24:32.222Z,14.20
2023-01-04T11:27:06.675Z,14.20
2023-01-04T11:29:40.732Z,14.30
2023-01-04T11:32:23.158Z,14.30
2023-01-04T11:34:52.051Z,14.30
2023-01-04T11:37:35.479Z,14.30
2023-01-04T11:40:17.615Z,14.30
2023-01-04T11:42:45.216Z,14.30
2023-01-04T11:45:19.383Z,14.30
2023-01-04T11:47:49.923Z,14.30
2023-01-04T11:50:31.951Z,14.30
2023-01-04T11:52:58.734Z,14.40
2023-01-04T11:55:29.157Z,14.30
2023-01-04T11:58:15.320Z,14.40
2023-01-04T12:00:54.782Z,14.40
2023-01-04T12:03:38.649Z,14.40
2023-01-04T12:06:16.936Z,14.40
2023-01-04T12:08:43.855Z,14.30
2023-01-04T12:11:15.128Z,14.30
2023-01-04T12:13:41.957Z,14.40
2023-01-04T12:16:21.132Z,14.40
2023-01-04T12:18:47.982Z,14.40
2023-01-04T12:21:20.799Z,14.30
2023-01-04T12:23:47.735Z,14.30
2023-01-04T12:26:16.104Z,14.30
2023-01-04T12:28:47.264Z,14.40
2023-01-04T12:31:21.111Z,14.40
2023-01-04T12:33:50.040Z,14.30
2023-01-04T12:36:35.564Z,14.30
2023-01-04T12:39:03.787Z,14.40
2023-01-04T12:41:33.701Z,14.40
2023-01-04T12:44:01.355Z,14.30
2023-01-04T12:46:49.684Z,14.30
2023-01-04T12:49:28.917Z,14.20
2023-01-04T12:54:55.662Z,14.30
2023-01-04T12:57:29.476Z,14.20
2023-01-04T12:59:58.995Z,14.20
2023-01-04T13:02:25.955Z,14.20
2023-01-04T13:05:25.867Z,14.10
2023-01-04T13:07:43.415Z,14.10
2023-01-04T13:10:20.506Z,14.00
2023-01-04T13:12:56.417Z,13.90
2023-01-04T13:15:37.291Z,13.90
2023-01-04T13:18:04.808Z,13.90
2023-01-04T13:20:31.907Z,13.90
2023-01-04T13:22:59.662Z,13.90
2023-01-04T13:25:26.512Z,13.90
2023-01-04T13:27:57.539Z,13.80
2023-01-04T13:30:28.532Z,13.80
2023-01-04T13:33:24.894Z,13.70
2023-01-04T13:35:42.166Z,13.70
2023-01-04T13:38:15.291Z,13.70
2023-01-04T13:40:49.272Z,13.70
2023-01-04T13:43:16.545Z,13.60
2023-01-04T13:45:51.764Z,13.70
2023-01-04T13:48:19.814Z,13.70
2023-01-04T13:50:57.985Z,13.70
2023-01-04T13:53:25.579Z,13.80
2023-01-04T13:55:56.440Z,13.80
2023-01-04T13:58:33.342Z,13.80
2023-01-04T14:01:04.592Z,13.80
2023-01-04T14:03:40.210Z,13.80
2023-01-04T14:06:10.205Z,13.70
2023-01-04T14:08:48.272Z,13.70
2023-01-04T14:11:36.748Z,13.70
2023-01-04T14:14:04.073Z,13.60
2023-01-04T14:16:30.844Z,13.60
2023-01-04T14:18:57.652Z,13.50
2023-01-04T14:21:33.182Z,13.30
2023-01-04T14:24:00.002Z,13.10
2023-01-04T14:26:30.432Z,13.00
2023-01-04T14:28:57.378Z,12.80
2023-01-04T14:31:27.690Z,12.70
2023-01-04T14:33:54.660Z,12.60
2023-01-04T14:36:22.882Z,12.60
2023-01-04T14:38:55.677Z,12.50
2023-01-04T14:41:23.501Z,12.40
2023-01-04T14:43:53.918Z,12.40
2023-01-04T14:46:21.310Z,12.30
2023-01-04T14:48:48.454Z,12.30
2023-01-04T14:51:16.780Z,12.30
2023-01-04T14:53:43.739Z,12.30
2023-01-04T14:56:14.154Z,12.30
2023-01-04T14:58:41.115Z,12.30
2023-01-04T15:01:08.286Z,12.30
2023-01-04T15:03:35.536Z,12.40
2023-01-04T15:06:03.036Z,12.50
2023-01-04T15:08:30.146Z,12.50
2023-01-04T15:11:00.113Z,12.50
2023-01-04T15:13:27.323Z,12.60
2023-01-04T15:15:54.250Z,12.60
2023-01-04T15:18:21.173Z,12.60
2023-01-04T15:20:48.038Z,12.60
2023-01-04T15:23:15.090Z,12.60
2023-01-04T15:25:41.991Z,12.60
2023-01-04T15:28:09.008Z,12.60
2023-01-04T15:30:36.151Z,12.60
2023-01-04T15:33:03.100Z,12.70
2023-01-04T15:35:29.901Z,12.70
2023-01-04T15:37:56.895Z,12.70
2023-01-04T15:40:24.069Z,12.70
2023-01-04T15:43:00.223Z,12.70
2023-01-04T15:45:30.218Z,12.70
2023-01-04T15:48:03.042Z,12.70
2023-01-04T15:50:30.707Z,12.70
2023-01-04T15:52:58.147Z,12.70
2023-01-04T15:55:25.051Z,12.80
2023-01-04T15:57:51.889Z,12.70
2023-01-04T16:00:18.915Z,12.70
2023-01-04T16:02:45.725Z,12.70
2023-01-04T16:05:12.631Z,12.70
2023-01-04T16:07:39.444Z,12.70
2023-01-04T16:10:06.648Z,12.70
2023-01-04T16:12:42.814Z,12.70
2023-01-04T16:15:10.505Z,12.70
2023-01-04T16:17:37.413Z,12.70
2023-01-04T16:20:04.614Z,12.70
2023-01-04T16:22:31.451Z,12.70
2023-01-04T16:25:13.494Z,12.70
2023-01-04T16:27:40.498Z,12.70
2023-01-04T16:30:08.591Z,12.60
2023-01-04T16:32:36.132Z,12.60
2023-01-04T16:35:03.290Z,12.60
2023-01-04T16:37:30.754Z,12.60
2023-01-04T16:40:06.213Z,12.60
2023-01-04T16:42:34.169Z,12.60
2023-01-04T16:45:01.388Z,12.60
2023-01-04T16:47:29.310Z,12.60
2023-01-04T16:49:56.123Z,12.60
2023-01-04T16:52:26.754Z,12.60
2023-01-04T16:54:53.566Z,12.60
2023-01-04T16:57:20.416Z,12.60
2023-01-04T16:59:47.281Z,12.60
2023-01-04T17:02:14.314Z,12.60
2023-01-04T17:04:41.179Z,12.60
2023-01-04T17:07:08.036Z,12.60
2023-01-04T17:09:35.582Z,12.60
2023-01-04T17:12:45.021Z,12.50
2023-01-04T17:15:15.121Z,12.50
2023-01-04T17:17:37.909Z,12.50
2023-01-04T17:20:06.477Z,12.50
2023-01-04T17:22:34.887Z,12.50
2023-01-04T17:25:02.200Z,12.40
2023-01-04T17:27:29.039Z,12.40
2023-01-04T17:29:55.871Z,12.40
2023-01-04T17:32:22.836Z,12.30
2023-01-04T17:34:49.857Z,12.30
2023-01-04T17:37:16.730Z,12.30
2023-01-04T17:39:43.655Z,12.30
2023-01-04T17:42:10.494Z,12.40
2023-01-04T17:44:37.642Z,12.40
2023-01-04T17:47:04.580Z,12.40
2023-01-04T17:49:32.484Z,12.40
2023-01-04T17:51:59.806Z,12.30
2023-01-04T17:54:27.170Z,12.20
2023-01-04T17:56:54.349Z,12.20
2023-01-04T17:59:21.162Z,12.20
2023-01-04T18:01:48.204Z,12.20
2023-01-04T18:04:15.223Z,12.20
2023-01-04T18:06:42.024Z,12.20
2023-01-04T18:09:09.348Z,12.20
2023-01-04T18:11:36.754Z,12.20
2023-01-04T18:14:06.377Z,12.20
2023-01-04T18:16:56.880Z,12.20
2023-01-04T18:19:24.548Z,12.30
2023-01-04T18:21:51.514Z,12.30
2023-01-04T18:29:52.663Z,12.20
2023-01-04T18:32:20.076Z,12.30
2023-01-04T18:34:46.873Z,12.30
2023-01-04T18:37:16.266Z,12.30
2023-01-04T18:39:43.501Z,12.30
2023-01-04T18:42:10.347Z,12.20
2023-01-04T18:44:43.787Z,12.20
2023-01-04T18:47:12.716Z,12.20
2023-01-04T18:49:39.666Z,12.20
2023-01-04T18:52:06.703Z,12.10
2023-01-04T18:54:33.565Z,12.00
2023-01-04T18:57:01.286Z,11.90
2023-01-04T18:59:29.010Z,11.90
2023-01-04T19:02:03.673Z,11.90
2023-01-04T19:04:31.720Z,11.80
2023-01-04T19:06:58.646Z,11.80
2023-01-04T19:09:25.477Z,11.80
2023-01-04T19:11:52.336Z,11.80
2023-01-04T19:14:19.291Z,11.70
2023-01-04T19:16:46.185Z,11.70
2023-01-04T19:19:13.320Z,11.60
2023-01-04T19:21:40.153Z,11.60
2023-01-04T19:24:07.409Z,11.60
2023-01-04T19:26:34.761Z,11.60
2023-01-04T19:29:01.570Z,11.60
2023-01-04T19:31:28.453Z,11.50
2023-01-04T19:33:55.349Z,11.50
2023-01-04T19:36:22.413Z,11.50
2023-01-04T19:38:49.422Z,11.50
2023-01-04T19:41:19.853Z,11.50
2023-01-04T19:43:46.966Z,11.50
2023-01-04T19:46:14.100Z,11.40
2023-01-04T19:48:41.234Z,11.40
2023-01-04T19:51:12.047Z,11.40
2023-01-04T19:53:39.074Z,11.40
2023-01-04T19:56:06.088Z,11.30
2023-01-04T19:58:32.903Z,11.30
2023-01-04T20:00:59.896Z,11.30
2023-01-04T20:03:27.025Z,11.30
2023-01-04T20:05:54.059Z,11.30
2023-01-04T20:08:21.107Z,11.20
2023-01-04T20:10:54.354Z,11.20
2023-01-04T20:13:21.217Z,11.10
2023-01-04T20:15:47.996Z,11.10
2023-01-04T20:18:15.081Z,11.10
2023-01-04T20:20:45.008Z,11.10
2023-01-04T20:23:12.797Z,11.10
2023-01-04T20:25:46.490Z,11.10
2023-01-04T20:28:13.847Z,11.10
2023-01-04T20:30:40.687Z,11.10
2023-01-04T20:33:07.639Z,11.00
2023-01-04T20:35:37.484Z,11.10
2023-01-04T20:38:04.478Z,11.00
2023-01-04T20:40:31.572Z,11.00
2023-01-04T20:43:17.053Z,11.00
2023-01-04T20:45:44.597Z,10.90
2023-01-04T20:48:11.640Z,10.90
2023-01-04T20:50:38.679Z,10.90
2023-01-04T20:53:05.514Z,10.80
2023-01-04T20:55:32.455Z,10.80
2023-01-04T20:57:59.341Z,10.80
2023-01-04T21:00:26.101Z,10.80
2023-01-04T21:02:53.190Z,10.80
2023-01-04T21:05:20.220Z,10.80
2023-01-04T21:07:47.013Z,10.80
2023-01-04T21:10:13.824Z,10.70
2023-01-04T21:12:40.637Z,10.80
2023-01-04T21:15:07.690Z,10.80
2023-01-04T21:17:34.493Z,10.80
2023-01-04T21:20:01.289Z,10.80
2023-01-04T21:22:28.262Z,10.70
2023-01-04T21:24:55.007Z,10.80
2023-01-04T21:27:21.930Z,10.70
2023-01-04T21:29:48.689Z,10.70
2023-01-04T21:32:15.545Z,10.70
2023-01-04T21:34:42.449Z,10.70
2023-01-04T21:37:09.294Z,10.80
2023-01-04T21:39:36.430Z,10.80
2023-01-04T21:42:03.237Z,10.80
2023-01-04T21:44:30.845Z,10.80
2023-01-04T21:46:57.701Z,10.80
2023-01-04T21:49:24.584Z,10.80
2023-01-04T21:51:51.381Z,10.90
2023-01-04T21:54:18.262Z,10.80
2023-01-04T21:56:45.304Z,10.80
2023-01-04T21:59:12.107Z,10.80
2023-01-04T22:01:39.090Z,10.80
2023-01-04T22:04:06.044Z,10.80
2023-01-04T22:06:34.212Z,10.80
2023-01-04T22:09:01.082Z,10.80
2023-01-04T22:11:27.864Z,10.80
2023-01-04T22:13:55.480Z,10.80
2023-01-04T22:16:22.491Z,10.80
2023-01-04T22:18:49.525Z,10.70
2023-01-04T22:21:17.136Z,10.70
2023-01-04T22:23:44.027Z,10.70
2023-01-04T22:26:10.877Z,10.80
2023-01-04T22:28:38.545Z,10.80
2023-01-04T22:31:06.179Z,10.70
2023-01-04T22:33:33.671Z,10.70
2023-01-04T22:36:03.057Z,10.70
2023-01-04T22:38:29.847Z,10.70
2023-01-04T22:40:56.753Z,10.70
2023-01-04T22:43:23.582Z,10.70
2023-01-04T22:45:50.543Z,10.70
2023-01-04T22:48:17.335Z,10.70
2023-01-04T22:50:44.104Z,10.70
2023-01-04T22:53:10.922Z,10.70
2023-01-04T22:56:17.039Z,10.70
2023-01-04T22:58:26.591Z,10.70
2023-01-04T23:00:53.370Z,10.70
2023-01-04T23:03:20.304Z,10.70
2023-01-04T23:05:47.239Z,10.70
2023-01-04T23:08:14.087Z,10.70
2023-01-04T23:10:40.884Z,10.70
2023-01-04T23:13:07.738Z,10.70
2023-01-04T23:15:36.308Z,10.60
2023-01-04T23:18:03.209Z,10.60
2023-01-04T23:20:30.288Z,10.60
2023-01-04T23:22:57.108Z,10.60
2023-01-04T23:25:24.029Z,10.60
2023-01-04T23:27:50.820Z,10.60
2023-01-04T23:30:17.727Z,10.60
2023-01-04T23:32:44.508Z,10.60
2023-01-04T23:35:11.379Z,10.60
2023-01-04T23:37:38.261Z,10.60
2023-01-04T23:40:05.397Z,10.50
2023-01-04T23:42:32.353Z,10.50
2023-01-04T23:44:59.246Z,10.50
2023-01-04T23:47:26.036Z,10.50
2023-01-04T23:49:52.879Z,10.60
2023-01-04T23:52:19.674Z,10.60
2023-01-04T23:54:46.486Z,10.70
2023-01-04T23:57:13.277Z,10.70
2023-01-04T23:59:40.085Z,10.80
